Time;durP1;ratioP1;P1;durP2;ratioP2;P2;SDS_P1;SDS_P2;PMS_P1;PMS_P2;Temp;Humidity;BMP_temperature;BMP_pressure;BME280_temperature;BME280_humidity;BME280_pressure;Samples;Min_cycle;Max_cycle;Signal;HPM_P1;HPM_P2
2022/09/08 00:00:51;;;;;;;9.05;7.57;;;25.40;55.20;;;;;;5045366;28;20217;-63
2022/09/08 00:03:21;;;;;;;9.15;8.25;;;25.40;55.20;;;;;;5049567;28;20048;-63
2022/09/08 00:06:03;;;;;;;8.68;7.88;;;25.40;55.20;;;;;;5049820;28;20044;-63
2022/09/08 00:08:30;;;;;;;9.02;8.13;;;25.40;55.20;;;;;;5048168;28;20045;-63
2022/09/08 00:11:02;;;;;;;7.80;7.15;;;25.40;55.20;;;;;;5049312;28;20541;-63
2022/09/08 00:13:32;;;;;;;8.65;7.85;;;25.40;55.20;;;;;;5049254;28;20049;-63
2022/09/08 00:16:02;;;;;;;8.60;7.80;;;25.40;55.20;;;;;;5038244;28;20049;-63
2022/09/08 00:18:38;;;;;;;8.82;8.02;;;25.40;55.30;;;;;;5040269;28;20107;-63
2022/09/08 00:21:05;;;;;;;;;;;25.40;55.20;;;;;;5049534;28;20048;-63
2022/09/08 00:23:32;;;;;;;8.43;7.72;;;25.40;55.20;;;;;;5049714;28;19998;-63
2022/09/08 00:26:00;;;;;;;8.20;7.40;;;25.40;55.30;;;;;;5048587;28;20045;-63
2022/09/08 00:28:27;;;;;;;8.00;7.30;;;25.40;55.30;;;;;;5049133;28;20047;-63
2022/09/08 00:30:54;;;;;;;8.77;7.97;;;25.40;55.30;;;;;;5044579;28;20045;-63
2022/09/08 00:33:23;;;;;;;8.38;7.57;;;25.30;55.20;;;;;;5047363;28;20099;-63
2022/09/08 00:35:51;;;;;;;7.65;6.95;;;25.40;55.30;;;;;;5049188;28;20071;-63
2022/09/08 00:38:19;;;;;;;8.68;7.78;;;25.40;55.30;;;;;;5049110;28;20405;-63
2022/09/08 00:40:48;;;;;;;8.32;7.57;;;25.30;55.20;;;;;;5048911;28;20480;-63
2022/09/08 00:43:37;;;;;;;8.52;7.63;;;25.40;55.30;;;;;;5048483;28;20077;-63
2022/09/08 00:46:20;;;;;;;7.70;7.00;;;25.40;55.30;;;;;;5047991;28;20425;-63
2022/09/08 00:49:10;;;;;;;8.32;7.53;;;25.40;55.30;;;;;;5049223;28;20171;-63
2022/09/08 00:51:42;;;;;;;8.25;7.53;;;25.40;55.30;;;;;;5048614;28;20158;-63
2022/09/08 00:54:11;;;;;;;7.15;6.55;;;25.30;55.30;;;;;;5048258;28;20052;-62
2022/09/08 00:56:41;;;;;;;8.88;8.02;;;25.30;55.30;;;;;;5048358;28;20041;-63
2022/09/08 00:59:10;;;;;;;8.55;7.68;;;25.30;55.30;;;;;;5048239;28;20053;-63
2022/09/08 01:01:38;;;;;;;8.15;7.45;;;25.30;55.30;;;;;;5048962;28;20056;-63
2022/09/08 01:04:06;;;;;;;8.65;7.40;;;25.40;55.90;;;;;;5043663;28;20458;-63
2022/09/08 01:12:59;;;;;;;8.68;7.88;;;25.30;55.30;;;;;;5047731;28;20049;-63
2022/09/08 01:15:28;;;;;;;8.57;7.78;;;25.40;55.40;;;;;;5047634;28;20098;-63
2022/09/08 01:17:56;;;;;;;8.45;7.43;;;25.30;55.30;;;;;;5048613;28;20385;-63
2022/09/08 01:20:32;;;;;;;7.70;7.03;;;25.30;55.30;;;;;;5047296;28;20045;-63
2022/09/08 01:23:28;;;;;;;8.18;7.45;;;25.40;55.40;;;;;;5047354;28;20509;-63
2022/09/08 01:26:21;;;;;;;7.93;7.13;;;25.30;55.30;;;;;;5048689;28;20057;-63
2022/09/08 01:28:57;;;;;;;7.35;6.70;;;25.40;55.40;;;;;;5048163;28;20041;-63
2022/09/08 01:31:24;;;;;;;7.97;7.28;;;25.40;55.40;;;;;;5047717;28;20049;-63
2022/09/08 01:33:52;;;;;;;7.40;6.78;;;25.30;55.30;;;;;;5046054;28;20300;-63
2022/09/08 01:36:19;;;;;;;8.23;7.50;;;25.30;55.30;;;;;;5044990;28;20056;-63
2022/09/08 01:38:47;;;;;;;7.93;7.22;;;25.40;55.40;;;;;;5047366;28;20505;-63
2022/09/08 01:41:14;;;;;;;8.77;7.97;;;25.30;55.30;;;;;;5047890;28;20049;-63
2022/09/08 01:43:41;;;;;;;8.13;7.43;;;25.40;55.40;;;;;;5047660;28;20083;-62
2022/09/08 01:46:09;;;;;;;8.02;7.25;;;25.40;55.40;;;;;;5046288;28;20493;-63
2022/09/08 01:48:36;;;;;;;7.80;7.10;;;25.30;55.30;;;;;;5048066;28;20059;-63
2022/09/08 01:51:06;;;;;;;8.18;7.45;;;25.30;55.40;;;;;;5047694;28;20416;-63
2022/09/08 01:53:34;;;;;;;6.80;6.18;;;25.30;55.40;;;;;;5047887;28;20045;-62
2022/09/08 01:56:02;;;;;;;7.80;7.10;;;25.30;55.30;;;;;;5047300;28;20041;-63
2022/09/08 01:58:29;;;;;;;8.15;7.35;;;25.30;55.40;;;;;;5048000;28;20056;-63
2022/09/08 02:00:57;;;;;;;8.23;7.43;;;25.30;55.30;;;;;;5048149;28;20055;-63
2022/09/08 02:03:25;;;;;;;7.70;7.00;;;25.30;55.40;;;;;;5047601;28;20533;-63
2022/09/08 02:05:53;;;;;;;8.18;7.45;;;25.30;55.40;;;;;;5045611;28;20149;-63
2022/09/08 02:08:21;;;;;;;7.20;6.60;;;25.30;55.40;;;;;;5045590;28;20041;-63
2022/09/08 02:10:57;;;;;;;7.22;6.53;;;25.30;55.40;;;;;;5046305;28;20041;-63
2022/09/08 02:13:24;;;;;;;7.60;6.90;;;25.30;55.40;;;;;;5048145;28;20048;-62
2022/09/08 02:16:00;;;;;;;8.00;7.22;;;25.30;55.40;;;;;;5038135;28;20054;-63
2022/09/08 02:18:31;;;;;;;7.50;6.80;;;25.30;55.40;;;;;;5031503;28;20050;-63
2022/09/08 02:21:10;;;;;;;7.43;6.72;;;25.30;55.40;;;;;;5030895;28;20048;-63
2022/09/08 02:23:40;;;;;;;7.60;6.57;;;25.30;55.40;;;;;;5031734;28;20145;-63
2022/09/08 02:26:17;;;;;;;7.57;6.80;;;25.30;55.40;;;;;;5031420;28;20406;-63
2022/09/08 02:28:45;;;;;;;7.30;6.57;;;25.30;55.40;;;;;;5031574;28;20057;-63
2022/09/08 02:31:13;;;;;;;7.10;6.50;;;25.30;55.40;;;;;;5032066;28;20077;-63
2022/09/08 02:33:41;;;;;;;7.05;6.45;;;25.30;55.50;;;;;;5031201;28;20057;-63
2022/09/08 02:36:08;;;;;;;7.10;6.40;;;25.30;55.40;;;;;;5031308;28;20041;-63
2022/09/08 02:38:35;;;;;;;7.38;6.68;;;25.30;55.50;;;;;;5026674;28;20383;-63
2022/09/08 02:41:03;;;;;;;6.60;6.00;;;25.30;55.40;;;;;;5031391;28;20041;-63
2022/09/08 02:43:30;;;;;;;7.13;6.53;;;25.30;55.50;;;;;;5031346;28;20056;-63
2022/09/08 02:46:03;;;;;;;6.80;6.20;;;25.20;55.40;;;;;;5030626;28;20095;-63
2022/09/08 02:48:30;;;;;;;7.35;6.70;;;25.30;55.50;;;;;;5031815;28;20042;-63
2022/09/08 02:51:02;;;;;;;7.10;6.50;;;25.30;55.50;;;;;;5029118;28;20049;-63
2022/09/08 02:53:30;;;;;;;7.57;6.88;;;25.20;55.40;;;;;;5031155;28;20162;-63
2022/09/08 02:55:58;;;;;;;7.05;6.45;;;25.20;55.50;;;;;;5029319;28;20505;-63
2022/09/08 02:58:25;;;;;;;7.18;6.57;;;25.20;55.40;;;;;;5030561;28;20053;-63
2022/09/08 03:00:53;;;;;;;7.47;6.88;;;25.20;55.40;;;;;;5033579;28;20044;-63
2022/09/08 03:03:22;;;;;;;7.07;6.47;;;25.20;55.50;;;;;;5040460;28;20046;-63
2022/09/08 03:05:50;;;;;;;7.07;6.47;;;25.20;55.50;;;;;;5029417;28;20405;-63
2022/09/08 03:08:19;;;;;;;7.57;6.25;;;25.20;55.50;;;;;;5047769;28;20037;-63
2022/09/08 03:10:48;;;;;;;7.43;6.80;;;25.20;55.50;;;;;;5045998;28;20053;-63
2022/09/08 03:13:15;;;;;;;7.23;6.63;;;25.30;55.60;;;;;;5051000;28;20045;-63
2022/09/08 03:15:43;;;;;;;6.93;6.32;;;25.30;55.60;;;;;;5049895;28;20087;-63
2022/09/08 03:18:11;;;;;;;6.93;6.22;;;25.30;55.60;;;;;;5049497;28;20049;-63
2022/09/08 03:20:39;;;;;;;7.57;6.85;;;25.30;55.60;;;;;;5031605;28;20060;-63
2022/09/08 03:23:07;;;;;;;7.55;6.80;;;25.30;55.60;;;;;;5029176;28;20132;-64
2022/09/08 03:25:36;;;;;;;6.97;6.30;;;25.30;55.60;;;;;;5030457;28;20220;-63
2022/09/08 03:28:05;;;;;;;6.72;6.13;;;25.30;55.70;;;;;;5029852;28;20081;-63
2022/09/08 03:30:33;;;;;;;7.07;6.40;;;25.30;55.80;;;;;;5030209;28;20052;-63
2022/09/08 03:33:00;;;;;;;7.13;6.38;;;25.30;55.90;;;;;;5029898;28;20317;-63
2022/09/08 03:35:27;;;;;;;7.07;6.47;;;25.30;56.00;;;;;;5038874;28;20049;-63
2022/09/08 03:37:54;;;;;;;7.22;6.25;;;25.30;56.00;;;;;;5049751;28;20053;-63
2022/09/08 03:40:22;;;;;;;7.97;6.57;;;25.30;56.10;;;;;;5049681;28;20053;-63
2022/09/08 03:42:49;;;;;;;7.47;6.78;;;25.30;56.10;;;;;;5045775;28;20059;-62
2022/09/08 03:45:17;;;;;;;6.30;5.80;;;25.30;56.10;;;;;;5049625;28;20137;-63
2022/09/08 03:47:45;;;;;;;7.50;6.80;;;25.30;56.10;;;;;;5049718;28;20049;-63
2022/09/08 03:50:16;;;;;;;7.88;6.32;;;25.30;56.10;;;;;;5050698;28;20049;-64
2022/09/08 03:52:43;;;;;;;6.63;6.03;;;25.20;56.00;;;;;;5048149;28;20486;-63
2022/09/08 03:55:11;;;;;;;6.78;6.18;;;25.30;56.10;;;;;;5047415;28;20049;-63
2022/09/08 03:57:39;;;;;;;6.60;5.97;;;25.30;56.10;;;;;;5029072;28;20046;-63
2022/09/08 04:00:08;;;;;;;7.18;6.57;;;25.30;56.10;;;;;;5030053;28;20413;-63
2022/09/08 04:02:36;;;;;;;6.20;5.70;;;25.30;56.10;;;;;;5029848;28;20053;-63
2022/09/08 04:05:04;;;;;;;6.75;6.15;;;25.30;56.10;;;;;;5042678;28;20056;-63
2022/09/08 04:07:33;;;;;;;6.47;5.88;;;25.30;56.10;;;;;;5049003;28;20052;-63
2022/09/08 04:10:02;;;;;;;6.15;5.63;;;25.30;56.10;;;;;;5047643;28;20595;-63
2022/09/08 04:12:39;;;;;;;7.95;6.53;;;25.30;56.10;;;;;;5045080;28;20045;-63
2022/09/08 04:15:08;;;;;;;9.63;6.00;;;25.30;56.10;;;;;;5048117;28;20417;-63
2022/09/08 04:17:36;;;;;;;6.25;5.65;;;25.30;56.10;;;;;;5048644;28;20083;-63
2022/09/08 04:20:04;;;;;;;5.70;5.20;;;25.30;56.10;;;;;;5048462;28;20052;-63
2022/09/08 04:22:32;;;;;;;8.57;5.53;;;25.30;56.10;;;;;;5048623;28;20048;-63
2022/09/08 04:25:00;;;;;;;7.85;5.53;;;25.30;56.10;;;;;;5049197;28;20519;-63
2022/09/08 04:27:27;;;;;;;5.40;4.95;;;25.30;56.10;;;;;;5047733;28;20040;-63
2022/09/08 04:29:55;;;;;;;6.55;5.95;;;25.30;56.10;;;;;;5048798;28;20589;-63
2022/09/08 04:32:22;;;;;;;6.70;5.57;;;25.30;56.10;;;;;;5047393;28;20394;-63
2022/09/08 04:34:49;;;;;;;6.05;5.45;;;25.30;56.10;;;;;;5048644;28;20053;-62
2022/09/08 04:37:18;;;;;;;6.13;5.53;;;25.30;56.10;;;;;;5048887;28;20049;-62
2022/09/08 04:39:47;;;;;;;6.10;5.50;;;25.30;56.10;;;;;;5047969;28;20059;-62
2022/09/08 04:42:14;;;;;;;6.33;5.73;;;25.30;56.10;;;;;;5049249;28;20048;-63
2022/09/08 04:44:41;;;;;;;6.82;5.30;;;25.30;56.10;;;;;;5044776;28;20605;-61
2022/09/08 04:47:08;;;;;;;6.03;5.40;;;25.30;56.00;;;;;;5047851;28;20045;-62
2022/09/08 04:49:36;;;;;;;5.68;5.15;;;25.30;56.00;;;;;;5048687;28;20051;-62
2022/09/08 04:52:03;;;;;;;6.50;4.95;;;25.30;56.00;;;;;;5048338;28;20041;-62
2022/09/08 04:54:30;;;;;;;6.28;5.13;;;25.30;55.90;;;;;;5048706;28;20049;-62
2022/09/08 04:56:57;;;;;;;5.03;4.57;;;25.40;56.00;;;;;;5047390;28;20416;-61
2022/09/08 04:59:25;;;;;;;5.80;5.30;;;25.40;56.00;;;;;;5048515;28;20501;-62
2022/09/08 05:01:53;;;;;;;5.63;5.13;;;25.40;55.90;;;;;;5049158;28;20503;-62
2022/09/08 05:04:20;;;;;;;5.57;5.03;;;25.40;55.90;;;;;;5048984;28;20044;-62
2022/09/08 05:06:47;;;;;;;5.15;4.65;;;25.40;55.90;;;;;;5049849;28;20056;-61
2022/09/08 05:09:15;;;;;;;5.35;4.85;;;25.40;55.80;;;;;;5049815;28;20444;-62
2022/09/08 05:11:42;;;;;;;14.55;5.55;;;25.40;55.90;;;;;;5049483;28;20055;-62
2022/09/08 05:14:09;;;;;;;5.35;4.60;;;25.40;55.90;;;;;;5048285;28;20087;-61
2022/09/08 05:16:36;;;;;;;5.63;5.00;;;25.30;56.10;;;;;;5043080;28;20091;-62
2022/09/08 05:19:12;;;;;;;6.05;4.65;;;25.10;56.20;;;;;;5044744;28;20060;-62
2022/09/08 05:21:42;;;;;;;4.60;4.20;;;24.90;56.40;;;;;;5043139;28;20045;-61
2022/09/08 05:24:10;;;;;;;5.68;4.22;;;24.70;56.00;;;;;;5038170;28;20055;-61
2022/09/08 05:26:37;;;;;;;6.25;4.13;;;24.50;55.00;;;;;;5045600;28;20140;-61
2022/09/08 05:29:04;;;;;;;4.75;4.13;;;24.20;54.20;;;;;;5042756;28;20053;-60
2022/09/08 05:31:32;;;;;;;5.72;4.18;;;23.90;53.40;;;;;;5040522;28;20044;-60
2022/09/08 05:33:59;;;;;;;6.55;3.88;;;23.50;53.00;;;;;;5043730;28;20143;-60
2022/09/08 05:36:32;;;;;;;4.57;4.18;;;23.20;52.80;;;;;;5042960;28;20043;-60
2022/09/08 05:39:01;;;;;;;6.70;4.47;;;22.80;53.70;;;;;;5036222;28;20054;-61
2022/09/08 05:41:30;;;;;;;6.40;3.47;;;22.50;52.60;;;;;;5037263;28;20040;-60
2022/09/08 05:43:58;;;;;;;7.07;3.90;;;22.20;52.80;;;;;;5036065;28;20044;-60
2022/09/08 05:46:27;;;;;;;6.47;3.80;;;21.90;52.90;;;;;;5040707;28;20060;-60
2022/09/08 05:49:01;;;;;;;5.57;3.88;;;21.60;53.30;;;;;;5035009;28;20044;-61
2022/09/08 05:51:30;;;;;;;13.52;4.72;;;21.30;54.20;;;;;;5033313;28;20401;-63
2022/09/08 05:53:59;;;;;;;8.85;4.22;;;21.00;54.70;;;;;;5034724;28;20045;-60
2022/09/08 05:56:26;;;;;;;10.52;3.78;;;20.80;55.60;;;;;;5037020;28;20181;-60
2022/09/08 05:58:57;;;;;;;12.88;5.18;;;20.60;56.10;;;;;;5041296;28;20434;-58
2022/09/08 06:01:27;;;;;;;14.18;4.38;;;20.40;56.80;;;;;;5035167;28;20406;-59
2022/09/08 06:03:55;;;;;;;7.55;4.00;;;20.20;57.30;;;;;;5038119;28;20142;-61
2022/09/08 06:06:22;;;;;;;9.43;3.60;;;20.20;58.00;;;;;;5043131;28;20143;-60
2022/09/08 06:08:54;;;;;;;9.15;3.60;;;20.10;58.40;;;;;;5042299;28;20048;-60
2022/09/08 06:11:21;;;;;;;7.82;3.60;;;20.00;58.70;;;;;;5039375;28;20166;-60
2022/09/08 06:13:48;;;;;;;5.70;3.20;;;19.90;59.00;;;;;;5039536;28;20049;-59
2022/09/08 06:16:16;;;;;;;7.57;3.50;;;19.90;59.40;;;;;;5041706;28;20068;-60
2022/09/08 06:18:45;;;;;;;6.75;4.30;;;19.90;59.80;;;;;;5039076;28;20140;-62
2022/09/08 06:21:16;;;;;;;5.32;3.30;;;19.90;60.50;;;;;;5039560;28;21750;-60
2022/09/08 06:23:47;;;;;;;4.47;2.95;;;19.80;60.70;;;;;;5040282;28;20045;-59
2022/09/08 06:26:42;;;;;;;4.78;2.50;;;19.90;60.80;;;;;;5039955;28;20048;-60
2022/09/08 06:29:44;;;;;;;6.10;2.85;;;19.90;60.50;;;;;;5041329;28;20055;-60
2022/09/08 06:32:28;;;;;;;4.63;2.67;;;19.80;60.00;;;;;;5037520;28;20056;-60
2022/09/08 06:35:03;;;;;;;7.97;2.80;;;19.80;60.00;;;;;;5036866;28;20060;-61
2022/09/08 06:38:02;;;;;;;5.07;2.45;;;19.80;60.70;;;;;;5041818;28;20051;-61
2022/09/08 06:40:45;;;;;;;3.20;2.33;;;19.80;60.50;;;;;;5041326;28;20055;-60
2022/09/08 06:43:35;;;;;;;4.82;2.35;;;19.80;61.30;;;;;;5040992;28;20144;-61
2022/09/08 06:46:11;;;;;;;6.10;2.35;;;19.80;60.70;;;;;;5045478;28;20055;-61
2022/09/08 06:48:39;;;;;;;5.40;2.15;;;19.80;60.30;;;;;;5039213;28;20041;-61
2022/09/08 06:51:37;;;;;;;7.43;2.90;;;19.80;59.90;;;;;;5037372;28;20449;-62
2022/09/08 06:54:33;;;;;;;5.72;3.17;;;19.80;59.80;;;;;;5042090;28;20072;-60
2022/09/08 06:57:39;;;;;;;6.43;2.38;;;19.70;59.30;;;;;;5038226;28;20048;-61
2022/09/08 07:00:33;;;;;;;5.03;2.47;;;19.60;59.00;;;;;;5037738;28;20102;-62
2022/09/08 07:03:30;;;;;;;4.75;2.75;;;19.60;59.60;;;;;;5035516;28;20052;-60
2022/09/08 07:06:08;;;;;;;2.83;1.88;;;19.50;60.20;;;;;;5038228;28;20045;-60
2022/09/08 07:09:03;;;;;;;4.28;2.20;;;19.50;60.20;;;;;;5039482;28;20053;-60
2022/09/08 07:11:54;;;;;;;7.70;2.17;;;19.50;60.10;;;;;;5038030;28;20781;-63
2022/09/08 07:14:45;;;;;;;2.55;1.60;;;19.50;59.80;;;;;;5041878;28;20056;-60
2022/09/08 07:17:37;;;;;;;2.45;2.25;;;19.50;60.80;;;;;;5040656;28;20124;-61
2022/09/08 07:20:10;;;;;;;2.33;2.13;;;19.50;60.60;;;;;;5038432;28;20053;-61
2022/09/08 07:22:48;;;;;;;5.68;2.50;;;19.50;60.90;;;;;;5032280;28;20045;-62
2022/09/08 07:25:36;;;;;;;7.70;2.40;;;19.50;61.30;;;;;;5038556;28;20076;-60
2022/09/08 07:28:12;;;;;;;4.78;2.17;;;19.50;61.10;;;;;;5039686;28;20427;-60
2022/09/08 07:30:41;;;;;;;3.10;2.35;;;19.50;61.30;;;;;;5035967;28;20045;-61
2022/09/08 07:33:33;;;;;;;3.50;2.30;;;19.50;61.40;;;;;;5039901;28;20053;-60
2022/09/08 07:36:29;;;;;;;2.88;1.88;;;19.50;61.20;;;;;;5038234;28;20550;-60
2022/09/08 07:39:02;;;;;;;6.65;2.58;;;19.50;60.80;;;;;;5039080;28;20061;-60
2022/09/08 07:41:46;;;;;;;3.65;2.35;;;19.50;61.10;;;;;;5040606;28;20053;-60
2022/09/08 07:44:16;;;;;;;9.68;3.22;;;19.40;61.00;;;;;;5036888;28;20179;-62
2022/09/08 07:47:13;;;;;;;5.22;2.05;;;19.40;61.60;;;;;;5040932;28;20183;-60
2022/09/08 07:50:21;;;;;;;5.55;2.90;;;19.40;61.50;;;;;;5036683;28;20041;-61
2022/09/08 07:53:00;;;;;;;5.65;2.50;;;19.40;61.00;;;;;;5039029;28;20037;-60
2022/09/08 07:55:41;;;;;;;4.28;2.47;;;19.40;61.40;;;;;;5032759;28;20047;-62
2022/09/08 07:58:21;;;;;;;5.75;2.58;;;19.40;61.10;;;;;;5040977;28;20045;-63
2022/09/08 08:01:11;;;;;;;5.88;3.00;;;19.50;61.10;;;;;;5037089;28;20053;-63
2022/09/08 08:03:53;;;;;;;;;;;19.50;61.40;;;;;;5038517;28;20045;-62
2022/09/08 08:06:55;;;;;;;4.05;2.40;;;19.50;60.70;;;;;;5040948;28;20014;-62
2022/09/08 08:09:52;;;;;;;3.60;2.65;;;19.50;60.90;;;;;;5043201;28;20048;-62
2022/09/08 08:12:39;;;;;;;9.93;3.00;;;19.60;61.20;;;;;;5035034;28;20141;-62
2022/09/08 08:15:34;;;;;;;3.38;3.00;;;19.60;61.10;;;;;;5038493;28;20048;-63
2022/09/08 08:18:28;;;;;;;6.55;3.08;;;19.60;61.10;;;;;;5041312;28;21585;-63
2022/09/08 08:21:22;;;;;;;6.13;2.58;;;19.70;61.00;;;;;;5035769;28;20055;-63
2022/09/08 08:24:21;;;;;;;2.88;2.67;;;19.70;60.80;;;;;;5036761;28;20140;-63
2022/09/08 08:27:01;;;;;;;4.68;2.53;;;19.70;61.40;;;;;;5034153;28;20052;-61
2022/09/08 08:29:59;;;;;;;2.63;2.43;;;19.80;61.40;;;;;;5040915;28;20041;-61
2022/09/08 08:32:32;;;;;;;3.58;2.50;;;19.70;60.90;;;;;;5040111;28;20041;-63
2022/09/08 08:35:44;;;;;;;3.67;2.80;;;19.80;61.40;;;;;;5041694;28;20068;-63
2022/09/08 08:38:20;;;;;;;4.57;3.03;;;19.80;61.20;;;;;;5034755;28;20079;-61
2022/09/08 08:40:59;;;;;;;5.93;2.50;;;19.80;61.90;;;;;;5036674;28;20064;-62
2022/09/08 08:43:52;;;;;;;5.88;2.40;;;19.90;62.10;;;;;;5036370;28;20049;-61
2022/09/08 08:46:49;;;;;;;5.13;2.92;;;19.90;62.00;;;;;;5039024;28;20419;-60
2022/09/08 08:49:48;;;;;;;5.20;2.75;;;20.00;62.00;;;;;;5037256;28;20053;-60
2022/09/08 08:52:48;;;;;;;3.05;2.53;;;20.00;62.00;;;;;;5038215;28;20047;-60
2022/09/08 08:55:55;;;;;;;5.45;2.78;;;20.20;61.80;;;;;;5039678;28;20049;-61
2022/09/08 08:59:03;;;;;;;8.02;2.60;;;20.20;61.90;;;;;;5034924;28;20072;-63
2022/09/08 09:02:03;;;;;;;2.92;2.30;;;20.30;61.50;;;;;;5035906;28;20045;-60
2022/09/08 09:04:58;;;;;;;6.78;2.35;;;20.30;61.60;;;;;;5040204;28;20045;-61
2022/09/08 09:08:05;;;;;;;3.70;2.35;;;20.40;61.80;;;;;;5036206;28;20040;-59
2022/09/08 09:11:12;;;;;;;3.83;2.10;;;20.50;61.60;;;;;;5037358;28;20111;-60
2022/09/08 09:14:12;;;;;;;4.35;2.78;;;20.50;61.60;;;;;;5035927;28;20534;-59
2022/09/08 09:17:16;;;;;;;3.53;2.50;;;20.60;61.60;;;;;;5037921;28;20057;-60
2022/09/08 09:20:18;;;;;;;3.65;2.30;;;20.60;61.70;;;;;;5039818;28;20096;-59
2022/09/08 09:23:11;;;;;;;2.50;2.20;;;20.70;61.80;;;;;;5038072;28;20508;-60
2022/09/08 09:25:55;;;;;;;5.65;2.50;;;20.70;61.80;;;;;;5037821;28;20060;-60
2022/09/08 09:28:51;;;;;;;2.80;2.33;;;20.70;62.20;;;;;;5036050;28;20787;-69
2022/09/08 09:31:46;;;;;;;2.60;2.38;;;20.80;62.30;;;;;;5033297;28;20503;-59
2022/09/08 09:34:41;;;;;;;3.53;2.55;;;20.80;62.50;;;;;;5037461;28;20094;-60
2022/09/08 09:37:43;;;;;;;3.97;2.20;;;20.80;62.40;;;;;;5036704;28;20045;-61
2022/09/08 09:40:40;;;;;;;6.43;2.83;;;20.90;63.30;;;;;;5036627;28;20059;-62
2022/09/08 09:43:34;;;;;;;5.00;3.08;;;20.90;62.60;;;;;;5038890;28;20048;-60
2022/09/08 09:46:25;;;;;;;6.10;2.47;;;20.90;62.50;;;;;;5042037;28;20052;-60
2022/09/08 09:49:32;;;;;;;2.22;2.10;;;20.90;62.60;;;;;;5039950;28;20041;-59
2022/09/08 09:52:36;;;;;;;2.28;2.08;;;21.00;62.20;;;;;;5041419;28;20045;-59
2022/09/08 09:55:38;;;;;;;8.85;3.22;;;21.00;62.00;;;;;;5037857;28;20147;-60
2022/09/08 09:58:42;;;;;;;3.17;2.22;;;21.00;61.80;;;;;;5038579;28;20449;-61
2022/09/08 10:01:43;;;;;;;5.07;2.72;;;21.00;61.50;;;;;;5036220;28;20085;-61
2022/09/08 10:04:37;;;;;;;2.15;1.80;;;21.00;61.40;;;;;;5035774;28;20090;-60
2022/09/08 10:07:44;;;;;;;3.40;2.22;;;21.00;60.80;;;;;;5036308;28;20045;-60
2022/09/08 10:10:51;;;;;;;4.25;2.25;;;21.10;60.60;;;;;;5038410;28;20053;-61
2022/09/08 10:13:51;;;;;;;6.60;2.75;;;21.10;60.30;;;;;;5037955;28;20414;-62
2022/09/08 10:16:58;;;;;;;4.90;2.10;;;21.10;60.00;;;;;;5040661;28;20056;-61
2022/09/08 10:20:05;;;;;;;3.65;2.25;;;21.20;59.80;;;;;;5034546;28;20087;-61
2022/09/08 10:23:01;;;;;;;2.35;2.15;;;21.10;59.50;;;;;;5035178;28;20069;-61
2022/09/08 10:25:57;;;;;;;1.98;1.60;;;21.20;59.30;;;;;;5036458;28;20741;-63
2022/09/08 10:28:58;;;;;;;3.58;2.30;;;21.10;59.30;;;;;;5040966;28;20481;-62
2022/09/08 10:31:58;;;;;;;2.85;1.80;;;21.10;59.10;;;;;;5040837;28;20473;-63
2022/09/08 10:35:05;;;;;;;3.43;2.20;;;21.20;59.10;;;;;;5035490;28;20044;-63
2022/09/08 10:38:12;;;;;;;6.15;2.72;;;21.10;58.90;;;;;;5037608;28;20037;-62
2022/09/08 10:41:17;;;;;;;1.88;1.73;;;21.10;59.20;;;;;;5043230;28;20053;-63
2022/09/08 10:44:11;;;;;;;6.05;2.22;;;21.10;59.10;;;;;;5043339;28;20128;-63
2022/09/08 10:47:38;;;;;;;3.00;2.40;;;21.20;59.30;;;;;;5043410;28;20135;-62
2022/09/08 10:50:23;;;;;;;6.55;2.30;;;21.10;59.40;;;;;;5043948;28;20041;-62
2022/09/08 10:53:25;;;;;;;3.72;1.88;;;21.10;59.50;;;;;;5039438;28;20570;-62
2022/09/08 10:56:13;;;;;;;3.45;2.30;;;21.10;59.70;;;;;;5042685;28;20086;-62
2022/09/08 10:59:20;;;;;;;3.35;2.15;;;21.20;59.50;;;;;;5046524;28;20095;-62
2022/09/08 11:02:14;;;;;;;4.82;2.15;;;21.20;59.50;;;;;;5038397;28;20052;-62
2022/09/08 11:05:06;;;;;;;2.38;1.73;;;21.20;59.10;;;;;;5033205;28;20052;-62
2022/09/08 11:08:07;;;;;;;3.78;2.00;;;21.30;59.10;;;;;;5034167;28;20049;-61
2022/09/08 11:11:01;;;;;;;2.95;1.80;;;21.20;59.00;;;;;;5039558;28;20495;-62
2022/09/08 11:13:37;;;;;;;3.80;2.30;;;21.20;58.70;;;;;;5040404;28;20110;-60
2022/09/08 11:16:44;;;;;;;7.25;2.25;;;21.20;58.70;;;;;;5039277;28;20143;-63
2022/09/08 11:19:34;;;;;;;3.17;1.80;;;21.20;58.90;;;;;;5038073;28;20053;-61
2022/09/08 11:22:22;;;;;;;4.03;1.95;;;21.10;58.90;;;;;;5038908;28;20045;-62
2022/09/08 11:25:29;;;;;;;3.00;1.85;;;21.10;59.00;;;;;;5037475;28;20059;-61
2022/09/08 11:28:33;;;;;;;3.90;2.00;;;21.10;59.10;;;;;;5043728;28;20049;-62
2022/09/08 11:31:27;;;;;;;1.95;1.70;;;21.00;58.80;;;;;;5040855;28;20498;-62
2022/09/08 11:34:17;;;;;;;4.13;2.38;;;21.00;59.50;;;;;;5042287;28;20505;-62
2022/09/08 11:37:12;;;;;;;4.00;2.08;;;21.00;58.90;;;;;;5034927;28;20049;-62
2022/09/08 11:40:12;;;;;;;6.00;1.85;;;21.00;58.90;;;;;;5037491;28;20543;-62
2022/09/08 11:43:12;;;;;;;4.82;2.33;;;21.00;58.70;;;;;;5039725;28;20049;-62
2022/09/08 11:46:01;;;;;;;2.55;2.25;;;21.00;58.90;;;;;;5040566;28;20594;-61
2022/09/08 11:49:11;;;;;;;2.30;1.83;;;21.00;59.20;;;;;;5040118;28;20068;-61
2022/09/08 11:52:28;;;;;;;3.45;1.50;;;20.90;59.30;;;;;;5039233;28;20053;-60
2022/09/08 11:55:25;;;;;;;1.70;1.60;;;21.00;59.30;;;;;;5035923;28;20046;-60
2022/09/08 11:58:23;;;;;;;5.35;2.30;;;21.10;58.90;;;;;;5041422;28;20055;-61
2022/09/08 12:01:09;;;;;;;3.40;1.67;;;21.00;59.00;;;;;;5041051;28;20084;-61
2022/09/08 12:04:16;;;;;;;2.25;1.95;;;21.10;59.00;;;;;;5038594;28;20157;-61
2022/09/08 12:07:15;;;;;;;2.78;2.20;;;21.10;58.80;;;;;;5034108;28;20056;-63
2022/09/08 12:10:22;;;;;;;5.47;1.95;;;21.00;59.00;;;;;;5040686;28;20199;-60
2022/09/08 12:13:07;;;;;;;5.35;1.80;;;21.00;58.80;;;;;;5038837;28;20061;-60
2022/09/08 12:16:02;;;;;;;7.75;1.73;;;21.10;59.00;;;;;;5038632;28;20105;-61
2022/09/08 12:18:57;;;;;;;5.05;2.00;;;21.00;58.30;;;;;;5042473;28;20409;-61
2022/09/08 12:21:54;;;;;;;4.60;2.00;;;21.10;58.50;;;;;;5040881;28;20128;-62
2022/09/08 12:24:36;;;;;;;6.53;2.03;;;21.10;58.40;;;;;;5039717;28;20052;-60
2022/09/08 12:28:01;;;;;;;5.63;1.70;;;21.00;58.50;;;;;;5039372;28;20051;-60
2022/09/08 12:31:00;;;;;;;7.32;2.10;;;21.10;58.90;;;;;;5040283;28;20360;-61
2022/09/08 12:34:07;;;;;;;2.85;1.60;;;21.10;58.90;;;;;;5039701;28;20063;-61
2022/09/08 12:36:50;;;;;;;2.75;1.50;;;21.00;58.80;;;;;;5040383;28;20045;-61
2022/09/08 12:39:53;;;;;;;2.35;1.38;;;21.00;59.00;;;;;;5034991;28;20052;-62
2022/09/08 12:43:00;;;;;;;2.08;1.48;;;21.00;59.00;;;;;;5040922;28;20059;-60
2022/09/08 12:46:01;;;;;;;3.35;2.10;;;21.00;59.10;;;;;;5036563;28;20063;-62
2022/09/08 12:48:43;;;;;;;2.67;1.42;;;20.90;59.20;;;;;;5037969;28;20045;-62
2022/09/08 12:51:37;;;;;;;3.88;1.73;;;20.90;59.30;;;;;;5036110;28;20057;-61
2022/09/08 12:54:44;;;;;;;2.70;1.85;;;21.00;59.20;;;;;;5039982;28;20075;-60
2022/09/08 12:57:35;;;;;;;4.05;1.67;;;21.00;59.20;;;;;;5039023;28;20144;-60
2022/09/08 13:00:12;;;;;;;3.03;1.65;;;21.00;59.10;;;;;;5038269;28;20135;-62
2022/09/08 13:03:17;;;;;;;4.22;1.63;;;21.00;59.10;;;;;;5040319;28;20045;-60
2022/09/08 13:06:16;;;;;;;2.50;1.70;;;21.00;59.20;;;;;;5035446;28;20049;-61
2022/09/08 13:09:07;;;;;;;6.30;1.75;;;21.00;59.10;;;;;;5039790;28;20056;-62
2022/09/08 13:12:08;;;;;;;3.00;1.88;;;21.00;58.60;;;;;;5032847;28;20499;-63
2022/09/08 13:14:59;;;;;;;1.90;1.80;;;21.00;58.60;;;;;;5037874;28;20132;-63
2022/09/08 13:17:50;;;;;;;3.53;1.70;;;21.10;58.50;;;;;;5037740;28;20073;-62
2022/09/08 13:20:34;;;;;;;4.10;2.80;;;21.00;58.40;;;;;;5037048;28;20497;-63
2022/09/08 13:23:24;;;;;;;4.00;2.15;;;21.00;58.70;;;;;;5033358;28;20053;-62
2022/09/08 13:26:13;;;;;;;8.10;2.20;;;21.00;58.50;;;;;;5035725;28;21573;-62
2022/09/08 13:29:17;;;;;;;2.25;2.03;;;21.00;58.70;;;;;;5039771;28;20044;-62
2022/09/08 13:32:23;;;;;;;6.38;2.38;;;20.90;58.90;;;;;;5032949;28;20056;-63
2022/09/08 13:35:30;;;;;;;4.25;1.60;;;20.90;59.10;;;;;;5039858;28;20045;-64
2022/09/08 13:38:21;;;;;;;6.57;2.50;;;20.90;59.30;;;;;;5036062;28;20048;-65
2022/09/08 13:41:22;;;;;;;3.13;1.70;;;21.00;59.00;;;;;;5035819;28;20053;-63
2022/09/08 13:44:23;;;;;;;10.30;1.88;;;21.00;58.90;;;;;;5029813;28;20048;-63
2022/09/08 13:47:30;;;;;;;3.92;2.20;;;21.00;58.80;;;;;;5039566;28;20052;-64
2022/09/08 13:50:37;;;;;;;6.15;1.95;;;21.00;58.90;;;;;;5038145;28;20049;-63
2022/09/08 13:53:44;;;;;;;6.07;2.47;;;21.10;58.60;;;;;;5038848;28;20474;-63
2022/09/08 13:56:36;;;;;;;5.18;2.05;;;21.00;58.90;;;;;;5033289;28;20052;-63
2022/09/08 13:59:33;;;;;;;7.75;2.38;;;21.00;58.90;;;;;;5039301;28;20068;-62
2022/09/08 14:02:00;;;;;;;7.13;1.98;;;20.90;59.10;;;;;;5037960;28;20049;-62
2022/09/08 14:04:37;;;;;;;5.47;2.70;;;20.90;59.40;;;;;;5037862;28;20051;-62
2022/09/08 14:07:20;;;;;;;3.20;2.08;;;21.00;59.50;;;;;;5031328;28;20060;-62
2022/09/08 14:10:13;;;;;;;4.80;2.08;;;21.00;59.20;;;;;;5041791;28;20049;-61
2022/09/08 14:12:52;;;;;;;7.72;2.20;;;21.00;59.10;;;;;;5037330;28;20485;-62